PWSweather.com
Personal Weather Stations
Station Observations
COONRAPIDS
Minneapolis, MN 55433

Minneapolis, MN 55433

Lat: 45.187721, Lon: -93.36828

Elevation: 898

Station Type: Davis Vantage Pro 2

High Low Average
Temperature 81.5°F27.5°C 62.3°F16.8°C 71.2°F21.8°C
Dew Point 61.0°F16.1°C 50.7°F10.4°C 57.2°F14.0°C
Winds 3.5 mph 5.6 kmh Calm Calm Calm NECalm NE
Wind Gusts 8.1 mph13.0 kmh -- 1.0 mph1.6 kmh
Humidity 85% 42% 63%
Pressure 30.05 in1017.6 mb 29.99 in1015.6 mb -
Precipitation 0.00 in0.0 mm - -
Hour Temp Dew Point Humidity Winds Wind Gusts Pressure Precip Precip Rate Daily Precip Total
12:00 AM 68.5°F20.3°C 61.0°F16.1°C 77% Calm Calm -- 29.99 in1015.6 mb - 0.00 in0.0 mm 0.00 in0.0 mm
12:10 AM 68.5°F20.3°C 61.0°F16.1°C 77% Calm Calm -- 29.99 in1015.6 mb - 0.00 in0.0 mm 0.00 in0.0 mm
12:20 AM 68.5°F20.3°C 60.6°F15.9°C 76% Calm Calm -- 29.99 in1015.6 mb - 0.00 in0.0 mm 0.00 in0.0 mm
12:30 AM 68.5°F20.3°C 60.6°F15.9°C 76% Calm Calm -- 29.99 in1015.6 mb - 0.00 in0.0 mm 0.00 in0.0 mm
12:40 AM 68.5°F20.3°C 60.6°F15.9°C 76% Calm Calm -- 29.99 in1015.6 mb - 0.00 in0.0 mm 0.00 in0.0 mm
12:50 AM 68.5°F20.3°C 60.6°F15.9°C 76% Calm Calm -- 30.00 in1015.9 mb - 0.00 in0.0 mm 0.00 in0.0 mm
01:00 AM 68.4°F20.2°C 60.5°F15.8°C 76% Calm Calm -- 30.00 in1015.9 mb - 0.00 in0.0 mm 0.00 in0.0 mm
01:10 AM 68.2°F20.1°C 60.4°F15.8°C 76% Calm Calm -- 30.00 in1015.9 mb - 0.00 in0.0 mm 0.00 in0.0 mm
01:20 AM 68.0°F20.0°C 60.5°F15.8°C 77% Calm Calm -- 30.00 in1015.9 mb - 0.00 in0.0 mm 0.00 in0.0 mm
01:30 AM 67.8°F19.9°C 60.3°F15.7°C 77% Calm Calm -- 30.00 in1015.9 mb - 0.00 in0.0 mm 0.00 in0.0 mm
01:40 AM 67.5°F19.7°C 60.0°F15.6°C 77% Calm Calm -- 30.01 in1016.3 mb - 0.00 in0.0 mm 0.00 in0.0 mm
01:50 AM 67.2°F19.6°C 60.1°F15.6°C 78% Calm Calm -- 30.01 in1016.3 mb - 0.00 in0.0 mm 0.00 in0.0 mm
02:00 AM 66.9°F19.4°C 59.8°F15.4°C 78% Calm Calm -- 30.01 in1016.3 mb - 0.00 in0.0 mm 0.00 in0.0 mm
02:10 AM 66.6°F19.2°C 59.9°F15.5°C 79% Calm Calm -- 30.01 in1016.3 mb - 0.00 in0.0 mm 0.00 in0.0 mm
02:20 AM 66.3°F19.1°C 59.9°F15.5°C 80% Calm Calm -- 30.01 in1016.3 mb - 0.00 in0.0 mm 0.00 in0.0 mm
02:30 AM 66.1°F18.9°C 59.7°F15.4°C 80% Calm Calm -- 30.01 in1016.3 mb - 0.00 in0.0 mm 0.00 in0.0 mm
02:40 AM 65.8°F18.8°C 59.5°F15.3°C 80% Calm Calm -- 30.01 in1016.3 mb - 0.00 in0.0 mm 0.00 in0.0 mm
02:50 AM 65.7°F18.7°C 59.7°F15.4°C 81% Calm Calm -- 30.02 in1016.6 mb - 0.00 in0.0 mm 0.00 in0.0 mm
03:00 AM 65.5°F18.6°C 59.5°F15.3°C 81% Calm Calm -- 30.02 in1016.6 mb - 0.00 in0.0 mm 0.00 in0.0 mm
03:10 AM 65.2°F18.4°C 59.3°F15.2°C 81% Calm Calm -- 30.02 in1016.6 mb - 0.00 in0.0 mm 0.00 in0.0 mm
03:20 AM 65.0°F18.3°C 59.0°F15.0°C 81% Calm Calm -- 30.02 in1016.6 mb - 0.00 in0.0 mm 0.00 in0.0 mm
03:30 AM 64.7°F18.2°C 59.1°F15.1°C 82% Calm Calm -- 30.02 in1016.6 mb - 0.00 in0.0 mm 0.00 in0.0 mm
03:40 AM 64.4°F18.0°C 58.8°F14.9°C 82% Calm Calm -- 30.01 in1016.3 mb - 0.00 in0.0 mm 0.00 in0.0 mm
03:50 AM 64.2°F17.9°C 58.6°F14.8°C 82% Calm Calm -- 30.01 in1016.3 mb - 0.00 in0.0 mm 0.00 in0.0 mm
04:00 AM 64.0°F17.8°C 58.7°F14.8°C 83% Calm Calm -- 30.02 in1016.6 mb - 0.00 in0.0 mm 0.00 in0.0 mm
04:10 AM 63.7°F17.6°C 58.4°F14.7°C 83% Calm Calm -- 30.02 in1016.6 mb - 0.00 in0.0 mm 0.00 in0.0 mm
04:20 AM 63.5°F17.5°C 58.2°F14.6°C 83% Calm Calm -- 30.02 in1016.6 mb - 0.00 in0.0 mm 0.00 in0.0 mm
04:30 AM 63.3°F17.4°C 58.0°F14.4°C 83% Calm Calm -- 30.02 in1016.6 mb - 0.00 in0.0 mm 0.00 in0.0 mm
04:40 AM 63.1°F17.3°C 57.9°F14.4°C 83% Calm Calm -- 30.02 in1016.6 mb - 0.00 in0.0 mm 0.00 in0.0 mm
04:50 AM 62.9°F17.2°C 58.0°F14.4°C 84% Calm Calm -- 30.02 in1016.6 mb - 0.00 in0.0 mm 0.00 in0.0 mm
05:00 AM 62.8°F17.1°C 57.9°F14.4°C 84% Calm Calm -- 30.03 in1016.9 mb - 0.00 in0.0 mm 0.00 in0.0 mm
05:10 AM 62.6°F17.0°C 57.7°F14.3°C 84% Calm Calm -- 30.03 in1016.9 mb - 0.00 in0.0 mm 0.00 in0.0 mm
05:20 AM 62.5°F16.9°C 57.6°F14.2°C 84% Calm Calm -- 30.04 in1017.3 mb - 0.00 in0.0 mm 0.00 in0.0 mm
05:30 AM 62.4°F16.9°C 57.5°F14.2°C 84% Calm Calm -- 30.04 in1017.3 mb - 0.00 in0.0 mm 0.00 in0.0 mm
05:40 AM 62.4°F16.9°C 57.5°F14.2°C 84% Calm Calm -- 30.05 in1017.6 mb - 0.00 in0.0 mm 0.00 in0.0 mm
05:50 AM 62.3°F16.8°C 57.7°F14.3°C 85% Calm Calm -- 30.05 in1017.6 mb - 0.00 in0.0 mm 0.00 in0.0 mm
06:00 AM 62.3°F16.8°C 57.7°F14.3°C 85% Calm Calm -- 30.05 in1017.6 mb - 0.00 in0.0 mm 0.00 in0.0 mm
06:10 AM 62.3°F16.8°C 57.7°F14.3°C 85% Calm Calm -- 30.04 in1017.3 mb - 0.00 in0.0 mm 0.00 in0.0 mm
06:20 AM 62.5°F16.9°C 57.9°F14.4°C 85% Calm Calm 1.2 mph1.9 kmh 30.04 in1017.3 mb - 0.00 in0.0 mm 0.00 in0.0 mm
06:30 AM 62.9°F17.2°C 58.0°F14.4°C 84% Calm Calm -- 30.05 in1017.6 mb - 0.00 in0.0 mm 0.00 in0.0 mm
06:40 AM 63.4°F17.4°C 58.1°F14.5°C 83% 1.2 mph NE1.9 kmh NE 2.3 mph3.7 kmh 30.05 in1017.6 mb - 0.00 in0.0 mm 0.00 in0.0 mm
06:50 AM 63.7°F17.6°C 57.8°F14.3°C 81% Calm Calm 1.2 mph1.9 kmh 30.04 in1017.3 mb - 0.00 in0.0 mm 0.00 in0.0 mm
07:00 AM 64.2°F17.9°C 58.2°F14.6°C 81% Calm Calm -- 30.04 in1017.3 mb - 0.00 in0.0 mm 0.00 in0.0 mm
07:10 AM 64.6°F18.1°C 58.3°F14.6°C 80% Calm Calm -- 30.04 in1017.3 mb - 0.00 in0.0 mm 0.00 in0.0 mm
07:20 AM 65.2°F18.4°C 58.2°F14.6°C 78% Calm Calm 3.5 mph5.6 kmh 30.04 in1017.3 mb - 0.00 in0.0 mm 0.00 in0.0 mm
07:30 AM 65.9°F18.8°C 58.5°F14.7°C 77% Calm Calm -- 30.04 in1017.3 mb - 0.00 in0.0 mm 0.00 in0.0 mm
07:40 AM 66.7°F19.3°C 58.9°F14.9°C 76% Calm Calm -- 30.04 in1017.3 mb - 0.00 in0.0 mm 0.00 in0.0 mm
07:50 AM 67.2°F19.6°C 59.0°F15.0°C 75% Calm Calm -- 30.05 in1017.6 mb - 0.00 in0.0 mm 0.00 in0.0 mm
08:00 AM 67.5°F19.7°C 59.3°F15.2°C 75% Calm Calm -- 30.05 in1017.6 mb - 0.00 in0.0 mm 0.00 in0.0 mm
08:10 AM 68.0°F20.0°C 59.0°F15.0°C 73% Calm Calm -- 30.05 in1017.6 mb - 0.00 in0.0 mm 0.00 in0.0 mm
08:20 AM 68.8°F20.4°C 59.0°F15.0°C 71% 2.3 mph NE3.7 kmh NE 4.6 mph7.4 kmh 30.05 in1017.6 mb - 0.00 in0.0 mm 0.00 in0.0 mm
08:30 AM 69.5°F20.8°C 59.2°F15.1°C 70% Calm Calm -- 30.05 in1017.6 mb - 0.00 in0.0 mm 0.00 in0.0 mm
08:40 AM 69.8°F21.0°C 58.8°F14.9°C 68% Calm Calm 1.2 mph1.9 kmh 30.05 in1017.6 mb - 0.00 in0.0 mm 0.00 in0.0 mm
08:50 AM 69.8°F21.0°C 59.6°F15.3°C 70% Calm Calm -- 30.05 in1017.6 mb - 0.00 in0.0 mm 0.00 in0.0 mm
09:00 AM 70.1°F21.2°C 59.1°F15.1°C 68% Calm Calm -- 30.05 in1017.6 mb - 0.00 in0.0 mm 0.00 in0.0 mm
09:10 AM 70.6°F21.4°C 58.7°F14.8°C 66% Calm Calm -- 30.05 in1017.6 mb - 0.00 in0.0 mm 0.00 in0.0 mm
09:20 AM 71.1°F21.7°C 58.7°F14.8°C 65% 1.2 mph NE1.9 kmh NE 3.5 mph5.6 kmh 30.05 in1017.6 mb - 0.00 in0.0 mm 0.00 in0.0 mm
09:30 AM 72.1°F22.3°C 58.8°F14.9°C 63% Calm Calm -- 30.05 in1017.6 mb - 0.00 in0.0 mm 0.00 in0.0 mm
09:40 AM 73.0°F22.8°C 58.3°F14.6°C 60% Calm Calm -- 30.05 in1017.6 mb - 0.00 in0.0 mm 0.00 in0.0 mm
09:50 AM 74.0°F23.3°C 59.2°F15.1°C 60% Calm Calm -- 30.05 in1017.6 mb - 0.00 in0.0 mm 0.00 in0.0 mm
10:00 AM 74.5°F23.6°C 58.2°F14.6°C 57% Calm Calm -- 30.04 in1017.3 mb - 0.00 in0.0 mm 0.00 in0.0 mm
10:10 AM 75.2°F24.0°C 58.4°F14.7°C 56% Calm Calm 3.5 mph5.6 kmh 30.04 in1017.3 mb - 0.00 in0.0 mm 0.00 in0.0 mm
10:20 AM 75.8°F24.3°C 58.0°F14.4°C 54% 1.2 mph NE1.9 kmh NE 3.5 mph5.6 kmh 30.05 in1017.6 mb - 0.00 in0.0 mm 0.00 in0.0 mm
10:30 AM 76.6°F24.8°C 58.2°F14.6°C 53% Calm Calm -- 30.04 in1017.3 mb - 0.00 in0.0 mm 0.00 in0.0 mm
10:40 AM 77.1°F25.1°C 57.0°F13.9°C 50% Calm Calm -- 30.04 in1017.3 mb - 0.00 in0.0 mm 0.00 in0.0 mm
10:50 AM 78.0°F25.6°C 58.4°F14.7°C 51% Calm Calm -- 30.04 in1017.3 mb - 0.00 in0.0 mm 0.00 in0.0 mm
11:00 AM 78.7°F25.9°C 58.5°F14.7°C 50% Calm Calm -- 30.04 in1017.3 mb - 0.00 in0.0 mm 0.00 in0.0 mm
11:10 AM 78.7°F25.9°C 56.8°F13.8°C 47% 2.3 mph NE3.7 kmh NE 8.1 mph13.0 kmh 30.04 in1017.3 mb - 0.00 in0.0 mm 0.00 in0.0 mm
11:20 AM 79.0°F26.1°C 57.1°F13.9°C 47% 1.2 mph NE1.9 kmh NE 1.2 mph1.9 kmh 30.04 in1017.3 mb - 0.00 in0.0 mm 0.00 in0.0 mm
11:30 AM 79.3°F26.3°C 56.7°F13.7°C 46% 1.2 mph NE1.9 kmh NE 5.8 mph9.3 kmh 30.04 in1017.3 mb - 0.00 in0.0 mm 0.00 in0.0 mm
11:40 AM 80.5°F26.9°C 57.2°F14.0°C 45% 2.3 mph NE3.7 kmh NE 2.3 mph3.7 kmh 30.04 in1017.3 mb - 0.00 in0.0 mm 0.00 in0.0 mm
11:50 AM 80.7°F27.1°C 58.6°F14.8°C 47% Calm Calm -- 30.04 in1017.3 mb - 0.00 in0.0 mm 0.00 in0.0 mm
12:00 PM 79.8°F26.6°C 57.8°F14.3°C 47% Calm Calm -- 30.04 in1017.3 mb - 0.00 in0.0 mm 0.00 in0.0 mm
12:10 PM 79.5°F26.4°C 56.9°F13.8°C 46% Calm Calm -- 30.04 in1017.3 mb - 0.00 in0.0 mm 0.00 in0.0 mm
12:20 PM 79.4°F26.3°C 58.0°F14.4°C 48% Calm Calm -- 30.04 in1017.3 mb - 0.00 in0.0 mm 0.00 in0.0 mm
12:30 PM 79.9°F26.6°C 57.3°F14.1°C 46% 1.2 mph NE1.9 kmh NE 2.3 mph3.7 kmh 30.04 in1017.3 mb - 0.00 in0.0 mm 0.00 in0.0 mm
12:40 PM 78.9°F26.1°C 56.3°F13.5°C 46% Calm Calm -- 30.04 in1017.3 mb - 0.00 in0.0 mm 0.00 in0.0 mm
12:50 PM 78.5°F25.8°C 56.6°F13.7°C 47% 1.2 mph NE1.9 kmh NE -- 30.03 in1016.9 mb - 0.00 in0.0 mm 0.00 in0.0 mm
01:00 PM 78.4°F25.8°C 56.5°F13.6°C 47% 1.2 mph NE1.9 kmh NE 1.2 mph1.9 kmh 30.03 in1016.9 mb - 0.00 in0.0 mm 0.00 in0.0 mm
01:10 PM 77.5°F25.3°C 56.3°F13.5°C 48% 2.3 mph NE3.7 kmh NE 8.1 mph13.0 kmh 30.03 in1016.9 mb - 0.00 in0.0 mm 0.00 in0.0 mm
01:20 PM 79.3°F26.3°C 55.5°F13.1°C 44% 2.3 mph NE3.7 kmh NE 3.5 mph5.6 kmh 30.02 in1016.6 mb - 0.00 in0.0 mm 0.00 in0.0 mm
01:30 PM 80.5°F26.9°C 57.2°F14.0°C 45% 1.2 mph NE1.9 kmh NE 6.9 mph11.1 kmh 30.02 in1016.6 mb - 0.00 in0.0 mm 0.00 in0.0 mm
01:40 PM 80.9°F27.2°C 57.6°F14.2°C 45% Calm Calm -- 30.02 in1016.6 mb - 0.00 in0.0 mm 0.00 in0.0 mm
01:50 PM 80.9°F27.2°C 56.3°F13.5°C 43% 1.2 mph NE1.9 kmh NE 1.2 mph1.9 kmh 30.02 in1016.6 mb - 0.00 in0.0 mm 0.00 in0.0 mm
02:00 PM 81.2°F27.3°C 56.6°F13.7°C 43% 1.2 mph NE1.9 kmh NE 3.5 mph5.6 kmh 30.02 in1016.6 mb - 0.00 in0.0 mm 0.00 in0.0 mm
02:10 PM 80.6°F27.0°C 56.6°F13.7°C 44% Calm Calm -- 30.02 in1016.6 mb - 0.00 in0.0 mm 0.00 in0.0 mm
02:20 PM 81.2°F27.3°C 57.8°F14.3°C 45% Calm Calm -- 30.02 in1016.6 mb - 0.00 in0.0 mm 0.00 in0.0 mm
02:30 PM 81.5°F27.5°C 56.8°F13.8°C 43% Calm Calm 1.2 mph1.9 kmh 30.02 in1016.6 mb - 0.00 in0.0 mm 0.00 in0.0 mm
02:40 PM 79.9°F26.6°C 56.7°F13.7°C 45% Calm Calm -- 30.01 in1016.3 mb - 0.00 in0.0 mm 0.00 in0.0 mm
02:50 PM 79.2°F26.2°C 55.4°F13.0°C 44% 1.2 mph NE1.9 kmh NE 1.2 mph1.9 kmh 30.01 in1016.3 mb - 0.00 in0.0 mm 0.00 in0.0 mm
03:00 PM 78.6°F25.9°C 55.5°F13.1°C 45% Calm Calm -- 30.01 in1016.3 mb - 0.00 in0.0 mm 0.00 in0.0 mm
03:10 PM 79.1°F26.2°C 55.9°F13.3°C 45% 2.3 mph NE3.7 kmh NE 4.6 mph7.4 kmh 30.01 in1016.3 mb - 0.00 in0.0 mm 0.00 in0.0 mm
03:20 PM 79.8°F26.6°C 55.9°F13.3°C 44% Calm Calm 1.2 mph1.9 kmh 30.01 in1016.3 mb - 0.00 in0.0 mm 0.00 in0.0 mm
03:30 PM 80.9°F27.2°C 55.7°F13.2°C 42% 1.2 mph NE1.9 kmh NE 2.3 mph3.7 kmh 30.00 in1015.9 mb - 0.00 in0.0 mm 0.00 in0.0 mm
03:40 PM 80.4°F26.9°C 56.5°F13.6°C 44% Calm Calm -- 30.00 in1015.9 mb - 0.00 in0.0 mm 0.00 in0.0 mm
03:50 PM 80.6°F27.0°C 55.4°F13.0°C 42% Calm Calm -- 30.00 in1015.9 mb - 0.00 in0.0 mm 0.00 in0.0 mm
04:00 PM 80.0°F26.7°C 55.5°F13.1°C 43% 2.3 mph ENE3.7 kmh ENE 3.5 mph5.6 kmh 30.00 in1015.9 mb - 0.00 in0.0 mm 0.00 in0.0 mm
04:10 PM 78.5°F25.8°C 54.8°F12.7°C 44% 2.3 mph NE3.7 kmh NE 2.3 mph3.7 kmh 30.00 in1015.9 mb - 0.00 in0.0 mm 0.00 in0.0 mm
04:20 PM 77.6°F25.3°C 55.2°F12.9°C 46% 2.3 mph NE3.7 kmh NE 5.8 mph9.3 kmh 30.00 in1015.9 mb - 0.00 in0.0 mm 0.00 in0.0 mm
04:30 PM 77.9°F25.5°C 56.6°F13.7°C 48% 3.5 mph ENE5.6 kmh ENE 3.5 mph5.6 kmh 30.00 in1015.9 mb - 0.00 in0.0 mm 0.00 in0.0 mm
04:40 PM 78.5°F25.8°C 56.0°F13.3°C 46% 2.3 mph NE3.7 kmh NE 3.5 mph5.6 kmh 30.00 in1015.9 mb - 0.00 in0.0 mm 0.00 in0.0 mm
04:50 PM 77.1°F25.1°C 57.0°F13.9°C 50% Calm Calm -- 30.00 in1015.9 mb - 0.00 in0.0 mm 0.00 in0.0 mm
05:00 PM 76.0°F24.4°C 56.0°F13.3°C 50% 3.5 mph NE5.6 kmh NE 4.6 mph7.4 kmh 30.00 in1015.9 mb - 0.00 in0.0 mm 0.00 in0.0 mm
05:10 PM 75.8°F24.3°C 56.4°F13.6°C 51% 2.3 mph NE3.7 kmh NE 2.3 mph3.7 kmh 30.00 in1015.9 mb - 0.00 in0.0 mm 0.00 in0.0 mm
05:20 PM 75.8°F24.3°C 56.9°F13.8°C 52% Calm Calm -- 30.00 in1015.9 mb - 0.00 in0.0 mm 0.00 in0.0 mm
05:30 PM 76.3°F24.6°C 57.3°F14.1°C 52% Calm Calm -- 30.00 in1015.9 mb - 0.00 in0.0 mm 0.00 in0.0 mm
05:40 PM 76.3°F24.6°C 56.3°F13.5°C 50% Calm Calm -- 30.00 in1015.9 mb - 0.00 in0.0 mm 0.00 in0.0 mm
05:50 PM 76.7°F24.8°C 56.1°F13.4°C 49% 2.3 mph NE3.7 kmh NE 3.5 mph5.6 kmh 30.00 in1015.9 mb - 0.00 in0.0 mm 0.00 in0.0 mm
06:00 PM 76.6°F24.8°C 56.5°F13.6°C 50% Calm Calm 2.3 mph3.7 kmh 29.99 in1015.6 mb - 0.00 in0.0 mm 0.00 in0.0 mm
06:10 PM 75.6°F24.2°C 56.2°F13.4°C 51% Calm Calm -- 29.99 in1015.6 mb - 0.00 in0.0 mm 0.00 in0.0 mm
06:20 PM 74.7°F23.7°C 55.9°F13.3°C 52% Calm Calm 3.5 mph5.6 kmh 29.99 in1015.6 mb - 0.00 in0.0 mm 0.00 in0.0 mm
06:30 PM 74.0°F23.3°C 56.3°F13.5°C 54% Calm Calm -- 29.99 in1015.6 mb - 0.00 in0.0 mm 0.00 in0.0 mm
06:40 PM 73.4°F23.0°C 55.7°F13.2°C 54% Calm Calm 3.5 mph5.6 kmh 29.99 in1015.6 mb - 0.00 in0.0 mm 0.00 in0.0 mm
06:50 PM 73.0°F22.8°C 56.4°F13.6°C 56% Calm Calm -- 30.00 in1015.9 mb - 0.00 in0.0 mm 0.00 in0.0 mm
07:00 PM 72.7°F22.6°C 56.6°F13.7°C 57% 1.2 mph NE1.9 kmh NE 3.5 mph5.6 kmh 30.00 in1015.9 mb - 0.00 in0.0 mm 0.00 in0.0 mm
07:10 PM 72.2°F22.3°C 55.6°F13.1°C 56% Calm Calm -- 30.01 in1016.3 mb - 0.00 in0.0 mm 0.00 in0.0 mm
07:20 PM 71.8°F22.1°C 56.7°F13.7°C 59% Calm Calm 3.5 mph5.6 kmh 30.00 in1015.9 mb - 0.00 in0.0 mm 0.00 in0.0 mm
07:30 PM 71.5°F21.9°C 56.4°F13.6°C 59% Calm Calm -- 30.00 in1015.9 mb - 0.00 in0.0 mm 0.00 in0.0 mm
07:40 PM 71.0°F21.7°C 56.0°F13.3°C 59% Calm Calm -- 30.01 in1016.3 mb - 0.00 in0.0 mm 0.00 in0.0 mm
07:50 PM 70.6°F21.4°C 56.0°F13.3°C 60% Calm Calm -- 30.01 in1016.3 mb - 0.00 in0.0 mm 0.00 in0.0 mm
08:00 PM 70.2°F21.2°C 56.5°F13.6°C 62% 2.3 mph NE3.7 kmh NE 2.3 mph3.7 kmh 30.01 in1016.3 mb - 0.00 in0.0 mm 0.00 in0.0 mm
08:10 PM 69.8°F21.0°C 56.2°F13.4°C 62% Calm Calm -- 30.02 in1016.6 mb - 0.00 in0.0 mm 0.00 in0.0 mm
08:20 PM 69.5°F20.8°C 56.8°F13.8°C 64% Calm Calm -- 30.02 in1016.6 mb - 0.00 in0.0 mm 0.00 in0.0 mm
08:30 PM 69.2°F20.7°C 56.9°F13.8°C 65% 1.2 mph NE1.9 kmh NE 1.2 mph1.9 kmh 30.02 in1016.6 mb - 0.00 in0.0 mm 0.00 in0.0 mm
08:40 PM 68.9°F20.5°C 56.7°F13.7°C 65% Calm Calm -- 30.02 in1016.6 mb - 0.00 in0.0 mm 0.00 in0.0 mm
08:50 PM 68.7°F20.4°C 56.0°F13.3°C 64% Calm Calm -- 30.02 in1016.6 mb - 0.00 in0.0 mm 0.00 in0.0 mm
09:00 PM 68.5°F20.3°C 55.8°F13.2°C 64% Calm Calm -- 30.02 in1016.6 mb - 0.00 in0.0 mm 0.00 in0.0 mm
09:10 PM 68.5°F20.3°C 55.8°F13.2°C 64% 2.3 mph NE3.7 kmh NE 3.5 mph5.6 kmh 30.02 in1016.6 mb - 0.00 in0.0 mm 0.00 in0.0 mm
09:20 PM 68.3°F20.2°C 55.6°F13.1°C 64% 1.2 mph NE1.9 kmh NE 3.5 mph5.6 kmh 30.02 in1016.6 mb - 0.00 in0.0 mm 0.00 in0.0 mm
09:30 PM 68.2°F20.1°C 56.0°F13.3°C 65% Calm Calm -- 30.02 in1016.6 mb - 0.00 in0.0 mm 0.00 in0.0 mm
09:40 PM 68.0°F20.0°C 55.8°F13.2°C 65% Calm Calm -- 30.02 in1016.6 mb - 0.00 in0.0 mm 0.00 in0.0 mm
09:50 PM 67.9°F19.9°C 55.7°F13.2°C 65% Calm Calm 3.5 mph5.6 kmh 30.02 in1016.6 mb - 0.00 in0.0 mm 0.00 in0.0 mm
10:00 PM 67.7°F19.8°C 55.1°F12.8°C 64% Calm Calm -- 30.02 in1016.6 mb - 0.00 in0.0 mm 0.00 in0.0 mm
10:10 PM 67.6°F19.8°C 54.1°F12.3°C 62% 2.3 mph NE3.7 kmh NE 2.3 mph3.7 kmh 30.02 in1016.6 mb - 0.00 in0.0 mm 0.00 in0.0 mm
10:20 PM 67.5°F19.7°C 53.1°F11.7°C 60% Calm Calm -- 30.02 in1016.6 mb - 0.00 in0.0 mm 0.00 in0.0 mm
10:30 PM 67.3°F19.6°C 52.5°F11.4°C 59% Calm Calm -- 30.02 in1016.6 mb - 0.00 in0.0 mm 0.00 in0.0 mm
10:40 PM 67.2°F19.6°C 51.9°F11.1°C 58% 1.2 mph ESE1.9 kmh ESE 2.3 mph3.7 kmh 30.02 in1016.6 mb - 0.00 in0.0 mm 0.00 in0.0 mm
10:50 PM 67.0°F19.4°C 52.2°F11.2°C 59% 1.2 mph NE1.9 kmh NE 3.5 mph5.6 kmh 30.02 in1016.6 mb - 0.00 in0.0 mm 0.00 in0.0 mm
11:00 PM 66.7°F19.3°C 51.9°F11.1°C 59% Calm Calm 3.5 mph5.6 kmh 30.02 in1016.6 mb - 0.00 in0.0 mm 0.00 in0.0 mm
11:10 PM 66.4°F19.1°C 51.6°F10.9°C 59% Calm Calm -- 30.02 in1016.6 mb - 0.00 in0.0 mm 0.00 in0.0 mm
11:20 PM 66.2°F19.0°C 51.4°F10.8°C 59% 1.2 mph ENE1.9 kmh ENE 1.2 mph1.9 kmh 30.01 in1016.3 mb - 0.00 in0.0 mm 0.00 in0.0 mm
11:30 PM 66.1°F18.9°C 51.3°F10.7°C 59% Calm Calm -- 30.01 in1016.3 mb - 0.00 in0.0 mm 0.00 in0.0 mm
11:40 PM 65.9°F18.8°C 50.7°F10.4°C 58% Calm Calm 1.2 mph1.9 kmh 30.02 in1016.6 mb - 0.00 in0.0 mm 0.00 in0.0 mm
11:50 PM 65.7°F18.7°C 51.0°F10.6°C 59% Calm Calm -- 30.01 in1016.3 mb - 0.00 in0.0 mm 0.00 in0.0 mm